Time;durP1;ratioP1;P1;durP2;ratioP2;P2;SDS_P1;SDS_P2;PMS_P1;PMS_P2;Temp;Humidity;BMP_temperature;BMP_pressure;BME280_temperature;BME280_humidity;BME280_pressure;Samples;Min_cycle;Max_cycle;Signal;HPM_P1;HPM_P2
2023/09/11 00:01:36;;;;;;;9.18;6.20;;;;;;;17.33;100.00;97271.66;5023128;28;20115;-59
2023/09/11 00:04:02;;;;;;;10.07;7.05;;;;;;;17.26;100.00;97264.66;5027530;28;20045;-58
2023/09/11 00:06:29;;;;;;;10.35;6.43;;;;;;;17.30;100.00;97264.84;5021486;28;20129;-60
2023/09/11 00:08:57;;;;;;;9.38;5.85;;;;;;;17.28;100.00;97262.41;5024202;28;20494;-59
2023/09/11 00:11:24;;;;;;;8.90;6.32;;;;;;;17.34;100.00;97262.31;5021712;28;20051;-58
2023/09/11 00:13:51;;;;;;;11.75;6.45;;;;;;;17.36;100.00;97258.19;5022669;28;20041;-59
2023/09/11 00:16:17;;;;;;;9.82;6.20;;;;;;;17.37;100.00;97257.09;5023045;28;20052;-58
2023/09/11 00:18:45;;;;;;;9.38;6.68;;;;;;;17.24;100.00;97249.63;5025483;28;20057;-59
2023/09/11 00:21:12;;;;;;;11.75;5.88;;;;;;;17.11;100.00;97257.50;5026975;28;20516;-59
2023/09/11 00:23:38;;;;;;;9.40;6.07;;;;;;;16.98;100.00;97252.72;5022927;28;20501;-59
2023/09/11 00:26:05;;;;;;;11.13;6.90;;;;;;;16.97;100.00;97246.47;5022562;28;20136;-59
2023/09/11 00:28:31;;;;;;;14.52;6.57;;;;;;;17.08;100.00;97246.31;5022027;28;20052;-58
2023/09/11 00:31:01;;;;;;;10.27;6.30;;;;;;;17.04;100.00;97246.09;5020140;28;20041;-59
2023/09/11 00:33:28;;;;;;;9.32;6.70;;;;;;;17.04;100.00;97237.88;5021172;28;20047;-59
2023/09/11 00:35:54;;;;;;;12.25;7.43;;;;;;;17.02;100.00;97237.34;5023165;28;20427;-60
2023/09/11 00:38:21;;;;;;;9.38;6.75;;;;;;;17.08;100.00;97233.47;5022061;28;20053;-59
2023/09/11 00:40:47;;;;;;;13.45;6.75;;;;;;;16.96;100.00;97228.44;5022659;28;20185;-60
2023/09/11 00:43:14;;;;;;;10.60;6.85;;;;;;;17.00;100.00;97232.19;5021971;28;20033;-58
2023/09/11 00:45:41;;;;;;;13.70;7.32;;;;;;;17.00;100.00;97236.84;5022036;28;20054;-59
2023/09/11 00:48:11;;;;;;;10.15;6.72;;;;;;;17.05;100.00;97228.59;5034974;28;20051;-59
2023/09/11 00:50:38;;;;;;;8.75;7.03;;;;;;;16.97;100.00;97226.50;5022166;28;20029;-59
2023/09/11 00:53:06;;;;;;;9.57;6.75;;;;;;;17.05;100.00;97219.56;5021829;28;20041;-58
2023/09/11 00:55:33;;;;;;;10.65;6.63;;;;;;;17.06;100.00;97216.53;5019306;28;20061;-59
2023/09/11 00:57:59;;;;;;;9.75;6.80;;;;;;;17.10;100.00;97222.25;5026554;28;20683;-60
2023/09/11 01:00:26;;;;;;;9.05;6.20;;;;;;;17.01;100.00;97219.31;5025098;28;20117;-59
2023/09/11 01:02:53;;;;;;;9.30;6.50;;;;;;;16.93;100.00;97220.00;5034051;28;20041;-59
2023/09/11 01:05:22;;;;;;;8.82;6.30;;;;;;;16.77;100.00;97217.53;5024372;28;20049;-60
2023/09/11 01:07:49;;;;;;;9.73;6.78;;;;;;;16.62;100.00;97210.34;5023849;28;20527;-59
2023/09/11 01:10:16;;;;;;;13.43;7.15;;;;;;;16.53;100.00;97204.72;5025222;28;20046;-59
2023/09/11 01:12:43;;;;;;;11.50;7.40;;;;;;;16.47;100.00;97206.72;5032792;28;20673;-57
2023/09/11 01:15:10;;;;;;;9.90;7.10;;;;;;;16.42;100.00;97204.06;5027783;28;20567;-58
2023/09/11 01:18:15;;;;;;;9.55;6.35;;;;;;;16.41;100.00;97196.16;5025019;28;20049;-59
2023/09/11 01:21:21;;;;;;;9.82;7.15;;;;;;;16.37;100.00;97193.22;5026141;28;20172;-59
2023/09/11 01:24:15;;;;;;;11.82;6.93;;;;;;;16.36;100.00;97197.03;5021503;28;20042;-57
2023/09/11 01:27:03;;;;;;;14.82;8.05;;;;;;;16.31;100.00;97191.63;5019422;28;20041;-59
2023/09/11 01:29:40;;;;;;;11.27;7.13;;;;;;;16.24;100.00;97195.56;5024775;28;21130;-58
2023/09/11 01:32:10;;;;;;;10.88;6.68;;;;;;;16.19;100.00;97192.06;5024712;28;20053;-59
2023/09/11 01:34:37;;;;;;;10.52;7.10;;;;;;;16.09;100.00;97191.09;5024469;28;20073;-59
2023/09/11 01:37:03;;;;;;;10.80;6.72;;;;;;;16.06;100.00;97186.22;5025142;28;20042;-57
2023/09/11 01:39:30;;;;;;;11.35;7.05;;;;;;;16.09;100.00;97182.91;5021912;28;20049;-59
2023/09/11 01:42:04;;;;;;;9.50;7.13;;;;;;;16.08;100.00;97186.75;5031851;28;20087;-60
2023/09/11 01:44:37;;;;;;;9.75;7.03;;;;;;;15.99;100.00;97186.59;5022629;28;20049;-57
2023/09/11 01:47:06;;;;;;;11.68;6.43;;;;;;;15.97;100.00;97186.06;5020581;28;20532;-58
2023/09/11 01:49:34;;;;;;;8.50;6.43;;;;;;;15.96;100.00;97191.81;5022701;28;20033;-59
2023/09/11 01:52:01;;;;;;;9.77;7.10;;;;;;;16.11;100.00;97193.56;5023931;28;20216;-60
2023/09/11 01:54:29;;;;;;;8.55;6.15;;;;;;;16.18;100.00;97193.19;5024342;28;20617;-60
2023/09/11 01:56:55;;;;;;;9.23;6.30;;;;;;;16.28;100.00;97190.31;5024555;28;20136;-59
2023/09/11 01:59:23;;;;;;;10.35;6.65;;;;;;;16.41;100.00;97191.50;5022299;28;20630;-59
2023/09/11 02:01:50;;;;;;;10.82;6.57;;;;;;;16.49;100.00;97196.31;5023167;28;20046;-60
2023/09/11 02:04:17;;;;;;;10.90;7.00;;;;;;;16.38;100.00;97190.19;5024720;28;20037;-60
2023/09/11 02:06:44;;;;;;;10.75;6.90;;;;;;;16.24;100.00;97192.81;5026154;28;20567;-59
2023/09/11 02:09:10;;;;;;;8.10;6.45;;;;;;;16.24;100.00;97195.56;5013362;28;20065;-58
2023/09/11 02:11:37;;;;;;;11.02;7.25;;;;;;;16.19;100.00;97194.81;5015990;28;20057;-56
2023/09/11 02:14:03;;;;;;;9.98;6.90;;;;;;;16.16;100.00;97196.22;5030462;28;20041;-59
2023/09/11 02:16:30;;;;;;;10.90;7.35;;;;;;;16.16;100.00;97190.75;5024921;28;20053;-59
2023/09/11 02:18:56;;;;;;;10.07;6.65;;;;;;;16.22;100.00;97195.03;5034360;28;20130;-58
2023/09/11 02:21:23;;;;;;;12.40;7.55;;;;;;;16.25;100.00;97194.44;5026436;28;20037;-59
2023/09/11 02:23:50;;;;;;;10.55;7.28;;;;;;;16.22;100.00;97194.22;4999410;28;20049;-59
2023/09/11 02:26:16;;;;;;;10.93;6.72;;;;;;;16.22;100.00;97194.22;4987530;28;20101;-59
2023/09/11 02:28:43;;;;;;;11.90;6.90;;;;;;;16.21;100.00;97181.66;5003323;28;20049;-59
2023/09/11 02:31:09;;;;;;;9.95;6.68;;;;;;;16.20;100.00;97189.06;5030805;28;20550;-57
2023/09/11 02:33:36;;;;;;;9.85;7.05;;;;;;;16.28;100.00;97189.50;5033002;28;20065;-59
2023/09/11 02:36:03;;;;;;;10.88;7.03;;;;;;;16.29;100.00;97186.47;5024501;28;20461;-58
2023/09/11 02:38:31;;;;;;;10.73;7.13;;;;;;;16.24;100.00;97189.28;5021892;28;20041;-59
2023/09/11 02:40:59;;;;;;;9.85;6.72;;;;;;;16.19;100.00;97190.16;5036595;28;20045;-58
2023/09/11 02:43:35;;;;;;;12.90;7.25;;;;;;;16.21;100.00;97190.66;5030776;28;20065;-59
2023/09/11 02:46:02;;;;;;;11.50;6.82;;;;;;;16.19;100.00;97189.34;5023704;28;20045;-59
2023/09/11 02:48:28;;;;;;;12.52;6.90;;;;;;;16.18;100.00;97195.91;5021840;28;20558;-58
2023/09/11 02:50:55;;;;;;;10.23;6.80;;;;;;;16.11;100.00;97199.00;5024187;28;20053;-59
2023/09/11 02:53:22;;;;;;;12.32;7.28;;;;;;;16.11;100.00;97193.56;5022548;28;20585;-59
2023/09/11 02:55:48;;;;;;;10.75;7.47;;;;;;;15.99;100.00;97181.13;5036570;28;20699;-59
2023/09/11 02:58:15;;;;;;;10.95;6.97;;;;;;;15.92;100.00;97188.03;5031092;28;20111;-59
2023/09/11 03:00:42;;;;;;;10.77;7.38;;;;;;;15.87;100.00;97191.59;5022778;28;20045;-60
2023/09/11 03:03:09;;;;;;;9.48;6.65;;;;;;;15.91;100.00;97189.09;5022214;28;20053;-60
2023/09/11 03:05:36;;;;;;;9.80;6.80;;;;;;;15.97;100.00;97186.06;5052450;28;20613;-60
2023/09/11 03:08:04;;;;;;;10.07;7.15;;;;;;;15.99;100.00;97192.03;5036939;28;20037;-59
2023/09/11 03:10:31;;;;;;;9.38;6.78;;;;;;;15.95;100.00;97182.81;5020275;28;20034;-58
2023/09/11 03:12:58;;;;;;;10.27;7.20;;;;;;;15.93;100.00;97182.28;5021784;28;20119;-58
2023/09/11 03:15:27;;;;;;;9.77;7.07;;;;;;;15.91;100.00;97181.72;5021824;28;20530;-58
2023/09/11 03:17:54;;;;;;;12.73;6.90;;;;;;;15.96;100.00;97178.16;5018966;28;20046;-58
2023/09/11 03:20:21;;;;;;;9.32;6.72;;;;;;;15.97;100.00;97183.34;5020870;28;20037;-59
2023/09/11 03:22:48;;;;;;;10.60;6.88;;;;;;;15.99;100.00;97181.13;5020963;28;20452;-60
2023/09/11 03:25:15;;;;;;;10.38;6.95;;;;;;;16.02;100.00;97173.44;5023159;28;20099;-59
2023/09/11 03:27:43;;;;;;;9.68;6.63;;;;;;;16.02;100.00;97177.00;5024052;28;20041;-59
2023/09/11 03:30:10;;;;;;;11.55;6.95;;;;;;;15.85;100.00;97180.19;5021908;28;20037;-60
2023/09/11 03:32:37;;;;;;;10.00;6.90;;;;;;;15.83;100.00;97176.91;5020213;28;20037;-60
2023/09/11 03:35:04;;;;;;;11.32;7.43;;;;;;;15.86;100.00;97181.81;5020616;28;20107;-57
2023/09/11 03:37:31;;;;;;;9.98;7.15;;;;;;;15.91;100.00;97189.91;5024034;28;20048;-59
2023/09/11 03:39:58;;;;;;;10.27;6.07;;;;;;;15.92;100.00;97188.81;5028791;28;20045;-59
2023/09/11 03:42:25;;;;;;;10.95;6.70;;;;;;;15.85;100.00;97188.38;5026668;28;21319;-60
2023/09/11 03:44:52;;;;;;;12.82;8.23;;;;;;;15.71;100.00;97185.53;5024177;28;20103;-60
2023/09/11 03:47:19;;;;;;;9.13;6.68;;;;;;;15.57;100.00;97185.38;5018934;28;20052;-60
2023/09/11 03:49:46;;;;;;;9.48;6.75;;;;;;;15.48;100.00;97185.19;5029328;28;20037;-59
2023/09/11 03:52:13;;;;;;;10.07;7.18;;;;;;;15.48;100.00;97185.19;5025151;28;20098;-59
2023/09/11 03:54:40;;;;;;;10.35;7.25;;;;;;;15.59;100.00;97184.00;5022389;28;20048;-57
2023/09/11 03:57:06;;;;;;;8.63;7.00;;;;;;;15.69;100.00;97190.44;5022157;28;20080;-59
2023/09/11 03:59:33;;;;;;;9.93;7.32;;;;;;;15.74;100.00;97183.00;5026290;28;20045;-58
2023/09/11 04:02:00;;;;;;;9.98;7.00;;;;;;;15.68;100.00;97178.72;5021218;28;20580;-58
2023/09/11 04:04:27;;;;;;;11.48;7.00;;;;;;;15.70;100.00;97178.44;5021020;28;20057;-58
2023/09/11 04:06:53;;;;;;;10.25;7.10;;;;;;;15.55;100.00;97182.94;5022645;28;20049;-60
2023/09/11 04:09:20;;;;;;;10.98;6.65;;;;;;;15.53;100.00;97173.44;5021240;28;20048;-59
2023/09/11 04:11:47;;;;;;;9.65;7.10;;;;;;;15.52;100.00;97180.00;5020470;28;20064;-58
2023/09/11 04:14:13;;;;;;;11.88;7.15;;;;;;;15.28;100.00;97178.03;5021872;28;20041;-60
2023/09/11 04:16:40;;;;;;;10.55;7.70;;;;;;;15.06;100.00;97174.69;5022734;28;20599;-60
2023/09/11 04:19:07;;;;;;;12.13;7.30;;;;;;;15.13;100.00;97174.38;5026717;28;20072;-57
2023/09/11 04:21:34;;;;;;;11.25;6.82;;;;;;;15.23;100.00;97175.38;5020410;28;20064;-60
2023/09/11 04:24:01;;;;;;;13.68;7.10;;;;;;;15.32;100.00;97176.34;5022208;28;20340;-59
2023/09/11 04:26:29;;;;;;;10.27;7.30;;;;;;;15.41;100.00;97188.28;5021907;28;20107;-60
2023/09/11 04:28:56;;;;;;;10.98;7.72;;;;;;;15.41;100.00;97176.56;5053486;28;20069;-60
2023/09/11 04:31:23;;;;;;;8.98;7.18;;;;;;;15.37;100.00;97178.25;5020688;28;20041;-59
2023/09/11 04:33:50;;;;;;;11.43;8.23;;;;;;;15.32;100.00;97179.91;5031200;28;20045;-59
2023/09/11 04:36:17;;;;;;;12.23;9.43;;;;;;;15.17;100.00;97172.69;5023721;28;20049;-59
2023/09/11 04:38:44;;;;;;;11.43;8.25;;;;;;;15.12;100.00;97177.38;5019223;28;20044;-59
2023/09/11 04:41:11;;;;;;;11.18;8.57;;;;;;;15.15;100.00;97177.59;5024969;28;20045;-60
2023/09/11 04:43:37;;;;;;;11.45;7.38;;;;;;;15.05;100.00;97173.06;5030902;28;20428;-58
2023/09/11 04:46:04;;;;;;;12.15;7.53;;;;;;;15.11;100.00;97175.75;5028568;28;20042;-59
2023/09/11 04:48:31;;;;;;;10.88;8.02;;;;;;;15.04;100.00;97178.81;5021388;28;20056;-58
2023/09/11 04:50:57;;;;;;;11.80;7.65;;;;;;;15.03;100.00;97177.16;5023716;28;20037;-58
2023/09/11 04:53:25;;;;;;;13.75;8.32;;;;;;;15.00;100.00;97181.28;5022753;28;20080;-58
2023/09/11 04:55:51;;;;;;;11.73;7.85;;;;;;;14.96;100.00;97182.94;5025554;28;20587;-58
2023/09/11 04:58:18;;;;;;;9.55;6.82;;;;;;;15.05;100.00;97180.44;5022988;28;20033;-58
2023/09/11 05:00:45;;;;;;;11.60;7.25;;;;;;;15.11;100.00;97186.66;5025498;28;20045;-59
2023/09/11 05:03:12;;;;;;;10.35;7.03;;;;;;;15.04;100.00;97185.06;5023810;28;20785;-56
2023/09/11 05:05:40;;;;;;;11.88;7.90;;;;;;;15.03;100.00;97185.34;5024593;28;20841;-60
2023/09/11 05:08:08;;;;;;;12.30;8.10;;;;;;;15.20;100.00;97187.66;5025310;28;20042;-58
2023/09/11 05:10:41;;;;;;;10.80;6.53;;;;;;;15.31;100.00;97191.09;5020739;28;20055;-62
2023/09/11 05:13:11;;;;;;;11.85;7.50;;;;;;;15.39;100.00;97190.50;5033015;28;20049;-59
2023/09/11 05:15:38;;;;;;;14.05;7.70;;;;;;;15.42;100.00;97191.81;5025722;28;20466;-57
2023/09/11 05:18:05;;;;;;;11.18;8.27;;;;;;;15.48;100.00;97188.75;5032401;28;20049;-62
2023/09/11 05:20:32;;;;;;;12.98;7.15;;;;;;;15.52;100.00;97188.19;5024176;28;20033;-59
2023/09/11 05:22:58;;;;;;;10.90;6.78;;;;;;;15.57;100.00;97199.03;5031048;28;20049;-59
2023/09/11 05:25:25;;;;;;;9.70;6.90;;;;;;;15.56;100.00;97194.69;5023126;28;20037;-59
2023/09/11 05:27:51;;;;;;;13.68;6.93;;;;;;;15.44;100.00;97195.09;5025714;28;20033;-60
2023/09/11 05:30:18;;;;;;;10.38;7.63;;;;;;;15.44;100.00;97197.81;5028953;28;20803;-60
2023/09/11 05:32:51;;;;;;;10.88;6.95;;;;;;;15.39;100.00;97197.84;5028402;28;20057;-60
2023/09/11 05:35:20;;;;;;;9.95;6.97;;;;;;;15.29;100.00;97185.94;5032526;28;20048;-58
2023/09/11 05:37:47;;;;;;;12.43;7.43;;;;;;;15.37;100.00;97203.59;5024668;28;20141;-60
2023/09/11 05:40:13;;;;;;;12.77;7.80;;;;;;;15.46;100.00;97204.59;5025521;28;20116;-60
2023/09/11 05:42:40;;;;;;;12.18;7.60;;;;;;;15.53;100.00;97203.44;5025763;28;20055;-59
2023/09/11 05:45:07;;;;;;;14.00;7.55;;;;;;;15.63;100.00;97200.63;5011034;28;20055;-58
2023/09/11 05:47:34;;;;;;;11.82;8.35;;;;;;;15.75;100.00;97205.69;5027060;28;20169;-60
2023/09/11 05:50:01;;;;;;;10.82;7.68;;;;;;;15.85;100.00;97202.03;5023594;28;20120;-58
2023/09/11 05:52:27;;;;;;;26.42;9.70;;;;;;;15.96;100.00;97208.22;5030440;28;20107;-60
2023/09/11 05:54:54;;;;;;;10.07;6.75;;;;;;;16.10;100.00;97200.09;5024208;28;20124;-58
2023/09/11 05:57:21;;;;;;;12.40;6.75;;;;;;;16.18;100.00;97212.31;5022695;28;20813;-58
2023/09/11 05:59:48;;;;;;;11.10;7.20;;;;;;;16.19;100.00;97203.81;5026663;28;20045;-57
2023/09/11 06:02:14;;;;;;;11.75;7.90;;;;;;;16.15;100.00;97204.69;5023054;28;20049;-59
2023/09/11 06:04:41;;;;;;;11.35;7.50;;;;;;;16.09;100.00;97206.66;5026916;28;20102;-57
2023/09/11 06:07:08;;;;;;;14.40;7.50;;;;;;;16.12;100.00;97206.91;5027092;28;20103;-58
2023/09/11 06:09:35;;;;;;;11.63;6.88;;;;;;;16.28;100.00;97208.63;5023727;28;20056;-59
2023/09/11 06:12:02;;;;;;;11.00;6.93;;;;;;;16.47;100.00;97205.94;5027532;28;20052;-58
2023/09/11 06:14:28;;;;;;;10.57;7.82;;;;;;;16.68;100.00;97202.88;5022509;28;20041;-59
2023/09/11 06:16:55;;;;;;;10.30;6.97;;;;;;;16.83;100.00;97213.59;5027867;28;20108;-59
2023/09/11 06:19:21;;;;;;;10.00;7.38;;;;;;;16.95;100.00;97215.84;5023541;28;20045;-59
2023/09/11 06:21:48;;;;;;;10.90;7.88;;;;;;;17.04;100.00;97218.75;5050344;28;20045;-59
2023/09/11 06:24:15;;;;;;;11.00;7.75;;;;;;;17.12;100.00;97220.00;5027216;28;20041;-62
2023/09/11 06:26:43;;;;;;;13.52;6.63;;;;;;;17.25;100.00;97226.66;5022382;28;20049;-59
2023/09/11 06:29:10;;;;;;;12.13;6.90;;;;;;;17.37;100.00;97218.78;5027936;28;20749;-60
2023/09/11 06:31:36;;;;;;;12.00;7.10;;;;;;;17.52;100.00;97220.44;5020742;28;20045;-57
2023/09/11 06:34:03;;;;;;;11.60;7.18;;;;;;;17.67;100.00;97219.34;5020024;28;20116;-59
2023/09/11 06:36:30;;;;;;;12.02;7.13;;;;;;;17.78;100.00;97222.69;5023078;28;20059;-57
2023/09/11 06:38:56;;;;;;;11.48;7.03;;;;;;;17.88;100.00;97218.91;5022266;28;20099;-60
2023/09/11 06:41:23;;;;;;;14.55;7.22;;;;;;;17.99;100.00;97214.06;5019490;28;20115;-58
2023/09/11 06:43:49;;;;;;;10.73;6.78;;;;;;;18.10;100.00;97211.16;5025188;28;20048;-60
2023/09/11 06:46:16;;;;;;;11.18;6.75;;;;;;;18.19;100.00;97206.56;5026104;28;20037;-63
2023/09/11 06:48:43;;;;;;;9.10;6.47;;;;;;;18.36;100.00;97205.94;5025207;28;20045;-62
2023/09/11 06:51:10;;;;;;;10.93;6.88;;;;;;;18.55;99.06;97207.72;5024575;28;20120;-62
2023/09/11 06:53:36;;;;;;;11.23;6.78;;;;;;;18.63;99.26;97211.66;5021376;28;20188;-63
2023/09/11 06:56:05;;;;;;;14.05;7.30;;;;;;;18.68;98.96;97203.31;5030153;28;20080;-64
2023/09/11 06:58:32;;;;;;;10.80;6.22;;;;;;;18.75;98.82;97202.91;5023173;28;20286;-63
2023/09/11 07:01:00;;;;;;;12.18;6.22;;;;;;;18.81;98.95;97207.16;5026850;28;20524;-62
2023/09/11 07:03:27;;;;;;;11.85;6.75;;;;;;;18.94;98.50;97197.25;5024374;28;20103;-62
2023/09/11 07:05:54;;;;;;;11.05;6.20;;;;;;;19.11;97.66;97202.06;5032552;28;20052;-62
2023/09/11 07:08:21;;;;;;;12.10;6.72;;;;;;;19.34;96.82;97208.34;5022773;28;20070;-65
2023/09/11 07:10:49;;;;;;;12.00;6.03;;;;;;;19.57;96.11;97213.78;5024970;28;20055;-62
2023/09/11 07:13:16;;;;;;;9.95;6.63;;;;;;;19.73;94.97;97213.41;5023924;28;20046;-62
2023/09/11 07:15:43;;;;;;;10.80;6.18;;;;;;;19.86;94.98;97206.97;5022599;28;20048;-64
2023/09/11 07:18:09;;;;;;;11.60;6.80;;;;;;;20.01;94.26;97207.69;5026605;28;20045;-63
2023/09/11 07:20:36;;;;;;;11.15;6.03;;;;;;;20.13;93.94;97196.91;5025217;28;20052;-64
2023/09/11 07:23:03;;;;;;;10.27;7.13;;;;;;;20.32;92.99;97208.75;5025216;28;20069;-63
2023/09/11 07:25:29;;;;;;;10.52;7.10;;;;;;;20.47;92.58;97207.50;5022581;28;20064;-63
2023/09/11 07:27:56;;;;;;;12.15;6.40;;;;;;;20.58;91.75;97200.56;5028225;28;20447;-61
2023/09/11 07:30:22;;;;;;;9.10;6.20;;;;;;;20.73;90.59;97204.78;5027539;28;20048;-62
2023/09/11 07:32:52;;;;;;;7.72;5.60;;;;;;;20.89;89.87;97207.88;5026947;28;20124;-60
2023/09/11 07:35:20;;;;;;;10.43;6.47;;;;;;;20.99;88.69;97209.50;5034824;28;20127;-63
2023/09/11 07:37:48;;;;;;;13.68;6.18;;;;;;;21.07;88.37;97207.06;5017322;28;20041;-64
2023/09/11 07:40:15;;;;;;;9.35;5.72;;;;;;;21.11;88.10;97205.28;5022119;28;20052;-62
2023/09/11 07:42:41;;;;;;;9.30;5.35;;;;;;;21.13;87.43;97214.00;5024085;28;20503;-62
2023/09/11 07:45:09;;;;;;;10.30;5.47;;;;;;;21.16;86.95;97213.38;5029562;28;20601;-64
2023/09/11 07:47:36;;;;;;;7.20;5.30;;;;;;;21.18;86.81;97211.09;5025451;28;20662;-63
2023/09/11 07:50:03;;;;;;;9.25;5.43;;;;;;;21.21;86.17;97201.34;5025133;28;20071;-63
2023/09/11 07:52:29;;;;;;;8.38;5.70;;;;;;;21.28;85.85;97216.28;5022592;28;20057;-63
2023/09/11 07:54:57;;;;;;;12.80;7.50;;;;;;;21.43;86.11;97208.63;5021094;28;20044;-63
2023/09/11 07:57:24;;;;;;;9.82;6.47;;;;;;;21.60;83.67;97206.94;5030172;28;20045;-63
2023/09/11 07:59:51;;;;;;;9.90;5.93;;;;;;;21.89;80.13;97211.72;5029971;28;20048;-62
2023/09/11 08:02:17;;;;;;;10.00;6.43;;;;;;;22.18;79.46;97217.59;5025275;28;20048;-63
2023/09/11 08:04:44;;;;;;;11.73;6.32;;;;;;;22.27;78.37;97215.63;5021527;28;20037;-62
2023/09/11 08:07:11;;;;;;;12.93;6.80;;;;;;;22.31;78.89;97219.31;5019414;28;20073;-62
2023/09/11 08:09:38;;;;;;;10.20;5.93;;;;;;;22.52;77.98;97223.25;5019427;28;20836;-63
2023/09/11 08:12:04;;;;;;;10.10;6.00;;;;;;;22.64;78.35;97222.53;5021520;28;20045;-63
2023/09/11 08:14:31;;;;;;;8.75;5.35;;;;;;;22.71;78.20;97222.81;5022468;28;20069;-62
2023/09/11 08:16:57;;;;;;;13.02;6.40;;;;;;;22.89;76.71;97220.75;5028060;28;20047;-65
2023/09/11 08:19:24;;;;;;;7.15;4.70;;;;;;;22.88;75.86;97223.84;5027890;28;20041;-63
2023/09/11 08:21:51;;;;;;;8.93;5.45;;;;;;;22.87;76.50;97223.00;5032972;28;20045;-62
2023/09/11 08:24:18;;;;;;;8.25;5.15;;;;;;;22.86;75.95;97219.44;5024196;28;20129;-63
2023/09/11 08:26:44;;;;;;;8.20;5.40;;;;;;;22.90;75.82;97225.09;5022833;28;20056;-63
2023/09/11 08:29:14;;;;;;;9.13;5.60;;;;;;;22.96;75.64;97229.25;5027354;28;20548;-63
2023/09/11 08:31:41;;;;;;;9.45;5.53;;;;;;;23.03;74.41;97227.94;5020217;28;20045;-62
2023/09/11 08:34:08;;;;;;;8.05;5.70;;;;;;;23.07;74.47;97228.88;5027009;28;20044;-63
2023/09/11 08:36:35;;;;;;;8.55;5.53;;;;;;;23.16;75.44;97229.59;5025575;28;20052;-63
2023/09/11 08:39:01;;;;;;;7.75;4.90;;;;;;;23.25;74.49;97223.97;5025500;28;20045;-64
2023/09/11 08:41:29;;;;;;;9.13;5.65;;;;;;;23.28;74.69;97225.28;5019532;28;20041;-64
2023/09/11 08:43:56;;;;;;;11.80;5.95;;;;;;;23.36;75.13;97227.16;5021122;28;20045;-63
2023/09/11 08:46:23;;;;;;;11.77;5.57;;;;;;;23.44;74.24;97225.47;5024135;28;20042;-63
2023/09/11 08:48:54;;;;;;;13.30;5.65;;;;;;;23.60;74.17;97220.91;5025181;28;20589;-62
2023/09/11 08:51:33;;;;;;;8.95;5.72;;;;;;;23.65;73.30;97222.63;5025108;28;20111;-62
2023/09/11 08:54:04;;;;;;;6.63;5.45;;;;;;;23.77;71.90;97222.66;5024222;28;20046;-63
2023/09/11 08:56:31;;;;;;;9.13;6.50;;;;;;;23.85;71.67;97223.69;5028486;28;20694;-62
2023/09/11 08:58:59;;;;;;;9.68;5.68;;;;;;;23.96;71.12;97224.06;5021040;28;20770;-63
2023/09/11 09:01:27;;;;;;;10.80;5.70;;;;;;;24.11;69.76;97225.38;5026581;28;20554;-62
2023/09/11 09:03:55;;;;;;;8.32;5.47;;;;;;;24.11;69.53;97227.31;5019244;28;20040;-62
2023/09/11 09:06:22;;;;;;;9.50;5.93;;;;;;;24.08;68.87;97214.16;5032502;28;20057;-62
2023/09/11 09:08:49;;;;;;;10.90;5.60;;;;;;;24.09;68.92;97219.34;5019576;28;20099;-62
2023/09/11 09:11:17;;;;;;;10.75;5.80;;;;;;;24.13;69.22;97216.69;5026261;28;20459;-62
2023/09/11 09:13:43;;;;;;;8.40;5.55;;;;;;;24.20;69.12;97218.88;5024691;28;20052;-62
2023/09/11 09:16:10;;;;;;;9.63;5.20;;;;;;;24.31;68.41;97216.47;5030560;28;20041;-63
2023/09/11 09:18:37;;;;;;;8.50;5.03;;;;;;;24.44;68.09;97214.50;5025019;28;20045;-63
2023/09/11 09:21:07;;;;;;;7.85;5.38;;;;;;;24.49;67.50;97217.84;5023757;28;20045;-63
2023/09/11 09:23:35;;;;;;;13.70;5.97;;;;;;;24.55;65.80;97215.66;5026370;28;20073;-63
2023/09/11 09:26:07;;;;;;;7.93;5.57;;;;;;;24.60;66.72;97218.16;5027541;28;20546;-63
2023/09/11 09:28:34;;;;;;;8.30;4.97;;;;;;;24.65;67.44;97217.91;5025484;28;20050;-63
2023/09/11 09:31:03;;;;;;;14.48;5.90;;;;;;;24.75;66.35;97208.34;5027017;28;20109;-63
2023/09/11 09:33:30;;;;;;;12.40;5.28;;;;;;;24.85;64.29;97215.38;5024985;28;20045;-63
2023/09/11 09:35:58;;;;;;;9.57;5.00;;;;;;;24.91;65.31;97207.63;5024438;28;20049;-63
2023/09/11 09:38:25;;;;;;;9.25;5.28;;;;;;;25.00;64.93;97207.47;5025182;28;20041;-61
2023/09/11 09:40:54;;;;;;;11.77;6.00;;;;;;;25.05;64.54;97205.25;5025637;28;20065;-62
2023/09/11 09:43:21;;;;;;;8.50;5.05;;;;;;;25.14;64.05;97212.63;5023477;28;20046;-60
2023/09/11 09:45:48;;;;;;;7.45;5.15;;;;;;;25.11;63.84;97205.00;5021969;28;20120;-61
2023/09/11 09:48:20;;;;;;;10.13;5.50;;;;;;;25.12;64.16;97198.28;5025649;28;20532;-63
2023/09/11 09:50:59;;;;;;;11.40;5.63;;;;;;;25.20;63.81;97202.88;5023429;28;20053;-62
2023/09/11 09:53:33;;;;;;;9.57;5.00;;;;;;;25.14;63.42;97202.31;5023249;28;20052;-64
2023/09/11 09:56:05;;;;;;;9.55;5.30;;;;;;;25.20;64.19;97195.38;5024205;28;20045;-64
2023/09/11 09:58:39;;;;;;;9.05;5.10;;;;;;;25.30;63.26;97196.84;5026104;28;20053;-65
2023/09/11 10:01:15;;;;;;;7.60;5.30;;;;;;;25.41;63.77;97188.81;5024632;28;20033;-63
2023/09/11 10:03:46;;;;;;;8.90;5.22;;;;;;;25.64;61.41;97192.97;5022040;28;20053;-64
2023/09/11 10:06:18;;;;;;;10.93;5.80;;;;;;;25.64;61.37;97191.00;5021964;28;20084;-63
2023/09/11 10:09:07;;;;;;;6.45;4.82;;;;;;;25.77;62.08;97188.97;5019462;28;20132;-63
2023/09/11 10:11:36;;;;;;;11.85;5.00;;;;;;;25.88;61.84;97180.09;5022585;28;20049;-63
2023/09/11 10:14:06;;;;;;;14.75;5.25;;;;;;;25.92;61.15;97186.53;5024824;28;20041;-62
2023/09/11 10:16:33;;;;;;;9.25;5.18;;;;;;;26.00;60.36;97181.97;5027122;28;20036;-64
2023/09/11 10:19:02;;;;;;;8.35;5.22;;;;;;;26.04;60.78;97178.13;5027510;28;20045;-63
2023/09/11 10:21:29;;;;;;;9.52;5.20;;;;;;;26.07;59.37;97177.41;5024798;28;20043;-66
2023/09/11 10:23:56;;;;;;;11.75;5.47;;;;;;;26.18;60.03;97174.06;5017769;28;20045;-64
2023/09/11 10:26:27;;;;;;;9.77;4.90;;;;;;;26.28;59.78;97179.09;5025267;28;20184;-63
2023/09/11 10:28:58;;;;;;;7.53;5.35;;;;;;;26.36;58.83;97169.75;5023213;28;20052;-64
2023/09/11 10:31:43;;;;;;;9.90;5.22;;;;;;;26.35;58.07;97168.16;5023468;28;20049;-64
2023/09/11 10:34:11;;;;;;;7.30;4.93;;;;;;;26.34;58.48;97168.50;5020409;28;20045;-63
2023/09/11 10:36:40;;;;;;;11.52;5.65;;;;;;;26.32;57.97;97168.88;5023248;28;20653;-63
2023/09/11 10:39:09;;;;;;;7.50;5.30;;;;;;;26.31;58.45;97153.38;5024539;28;20056;-63
2023/09/11 10:41:37;;;;;;;10.93;5.15;;;;;;;26.48;58.14;97154.16;5021134;28;20045;-64
2023/09/11 10:44:04;;;;;;;8.30;4.97;;;;;;;26.51;57.80;97163.72;5024511;28;20045;-64
2023/09/11 10:46:34;;;;;;;7.60;4.68;;;;;;;26.59;58.12;97163.53;5019638;28;20041;-64
2023/09/11 10:49:13;;;;;;;15.03;6.10;;;;;;;26.64;57.03;97156.84;5024830;28;20045;-63
2023/09/11 10:51:40;;;;;;;9.82;4.95;;;;;;;26.65;57.35;97160.44;5021462;28;20049;-64
2023/09/11 10:54:08;;;;;;;11.13;5.22;;;;;;;26.69;56.76;97153.81;5025159;28;20052;-64
2023/09/11 10:56:35;;;;;;;9.55;5.22;;;;;;;26.72;56.66;97141.97;5020121;28;20041;-63
2023/09/11 10:59:03;;;;;;;9.23;5.22;;;;;;;26.72;56.03;97144.75;5024180;28;20125;-64
2023/09/11 11:01:32;;;;;;;6.97;4.78;;;;;;;26.70;56.18;97138.75;5022116;28;20500;-64
2023/09/11 11:04:06;;;;;;;11.90;5.63;;;;;;;26.81;56.06;97138.97;5023417;28;20045;-64
2023/09/11 11:06:33;;;;;;;7.68;4.90;;;;;;;26.78;56.16;97136.91;5026692;28;20052;-63
2023/09/11 11:09:00;;;;;;;9.32;5.18;;;;;;;26.87;56.17;97134.72;5022597;28;20120;-64
2023/09/11 11:11:29;;;;;;;8.82;4.65;;;;;;;27.01;55.66;97128.69;5021848;28;20041;-63
2023/09/11 11:14:23;;;;;;;9.35;5.18;;;;;;;27.04;54.52;97134.69;5017244;28;20069;-63
2023/09/11 11:17:16;;;;;;;10.18;5.75;;;;;;;27.04;54.47;97131.91;5017315;28;20061;-63
2023/09/11 11:19:51;;;;;;;10.10;5.18;;;;;;;27.04;53.88;97123.56;5016585;28;20069;-64
2023/09/11 11:22:33;;;;;;;7.53;5.65;;;;;;;27.17;54.16;97125.00;5018906;28;20068;-63
2023/09/11 11:25:05;;;;;;;9.75;4.70;;;;;;;27.19;53.89;97121.84;4995576;28;20049;-64
2023/09/11 11:27:32;;;;;;;9.77;4.90;;;;;;;27.17;54.20;97122.22;5018602;28;20051;-64
2023/09/11 11:29:59;;;;;;;10.88;4.75;;;;;;;27.21;53.74;97123.09;5023322;28;20123;-63